sensor_id;sensor_type;location;lat;lon;timestamp;temperature;humidity
6724;DHT22;3399;52.530;13.304;2023-06-14T00:02:11;15.70;91.60
6724;DHT22;3399;52.530;13.304;2023-06-14T00:04:37;15.70;91.80
6724;DHT22;3399;52.530;13.304;2023-06-14T00:07:04;15.70;91.90
6724;DHT22;3399;52.530;13.304;2023-06-14T00:09:33;15.70;92.30
6724;DHT22;3399;52.530;13.304;2023-06-14T00:11:58;15.70;92.60
6724;DHT22;3399;52.530;13.304;2023-06-14T00:14:24;15.60;93.20
6724;DHT22;3399;52.530;13.304;2023-06-14T00:16:50;15.80;92.80
6724;DHT22;3399;52.530;13.304;2023-06-14T00:19:17;15.70;93.00
6724;DHT22;3399;52.530;13.304;2023-06-14T00:21:43;15.80;93.50
6724;DHT22;3399;52.530;13.304;2023-06-14T00:24:08;15.80;93.60
6724;DHT22;3399;52.530;13.304;2023-06-14T00:26:34;15.70;94.00
6724;DHT22;3399;52.530;13.304;2023-06-14T00:29:00;15.60;94.30
6724;DHT22;3399;52.530;13.304;2023-06-14T00:31:25;15.60;94.70
6724;DHT22;3399;52.530;13.304;2023-06-14T00:33:51;15.60;95.30
6724;DHT22;3399;52.530;13.304;2023-06-14T00:36:17;15.60;95.40
6724;DHT22;3399;52.530;13.304;2023-06-14T00:38:42;15.60;95.70
6724;DHT22;3399;52.530;13.304;2023-06-14T00:41:08;15.60;96.20
6724;DHT22;3399;52.530;13.304;2023-06-14T00:43:33;15.50;96.30
6724;DHT22;3399;52.530;13.304;2023-06-14T00:46:00;15.30;97.20
6724;DHT22;3399;52.530;13.304;2023-06-14T00:48:25;15.30;97.50
6724;DHT22;3399;52.530;13.304;2023-06-14T00:50:52;15.40;98.00
6724;DHT22;3399;52.530;13.304;2023-06-14T00:53:18;15.40;98.10
6724;DHT22;3399;52.530;13.304;2023-06-14T00:55:46;15.30;98.60
6724;DHT22;3399;52.530;13.304;2023-06-14T00:58:12;15.10;99.60
6724;DHT22;3399;52.530;13.304;2023-06-14T01:00:38;15.10;99.90
6724;DHT22;3399;52.530;13.304;2023-06-14T01:03:06;15.20;99.90
6724;DHT22;3399;52.530;13.304;2023-06-14T01:05:33;15.10;99.90
6724;DHT22;3399;52.530;13.304;2023-06-14T01:08:15;15.10;99.90
6724;DHT22;3399;52.530;13.304;2023-06-14T01:11:05;15.20;99.90
6724;DHT22;3399;52.530;13.304;2023-06-14T01:13:35;15.10;99.90
6724;DHT22;3399;52.530;13.304;2023-06-14T01:16:02;15.00;99.90
6724;DHT22;3399;52.530;13.304;2023-06-14T01:18:28;15.00;99.90
6724;DHT22;3399;52.530;13.304;2023-06-14T01:20:55;15.10;99.90
6724;DHT22;3399;52.530;13.304;2023-06-14T01:23:22;15.20;99.90
6724;DHT22;3399;52.530;13.304;2023-06-14T01:25:48;15.20;99.90
6724;DHT22;3399;52.530;13.304;2023-06-14T01:28:19;15.10;99.90
6724;DHT22;3399;52.530;13.304;2023-06-14T01:30:48;15.10;99.90
6724;DHT22;3399;52.530;13.304;2023-06-14T01:33:20;14.90;99.90
6724;DHT22;3399;52.530;13.304;2023-06-14T01:35:51;14.80;99.90
6724;DHT22;3399;52.530;13.304;2023-06-14T01:38:20;14.90;99.90
6724;DHT22;3399;52.530;13.304;2023-06-14T01:40:46;14.90;99.90
6724;DHT22;3399;52.530;13.304;2023-06-14T01:43:13;14.90;99.90
6724;DHT22;3399;52.530;13.304;2023-06-14T01:45:41;14.90;99.90
6724;DHT22;3399;52.530;13.304;2023-06-14T01:48:08;14.70;99.90
6724;DHT22;3399;52.530;13.304;2023-06-14T01:50:34;14.80;99.90
6724;DHT22;3399;52.530;13.304;2023-06-14T01:52:59;14.80;99.90
6724;DHT22;3399;52.530;13.304;2023-06-14T01:55:25;14.80;99.90
6724;DHT22;3399;52.530;13.304;2023-06-14T01:57:54;14.80;99.90
6724;DHT22;3399;52.530;13.304;2023-06-14T02:00:20;14.80;99.90
6724;DHT22;3399;52.530;13.304;2023-06-14T02:02:46;14.60;99.90
6724;DHT22;3399;52.530;13.304;2023-06-14T02:05:12;14.70;99.90
6724;DHT22;3399;52.530;13.304;2023-06-14T02:07:38;14.50;99.90
6724;DHT22;3399;52.530;13.304;2023-06-14T02:10:04;14.50;99.90
6724;DHT22;3399;52.530;13.304;2023-06-14T02:12:30;14.40;99.90
6724;DHT22;3399;52.530;13.304;2023-06-14T02:14:56;14.30;99.90
6724;DHT22;3399;52.530;13.304;2023-06-14T02:17:22;14.30;99.90
6724;DHT22;3399;52.530;13.304;2023-06-14T02:19:48;14.20;99.90
6724;DHT22;3399;52.530;13.304;2023-06-14T02:22:14;14.30;99.90
6724;DHT22;3399;52.530;13.304;2023-06-14T02:24:40;14.20;99.90
6724;DHT22;3399;52.530;13.304;2023-06-14T02:27:06;14.00;99.90
6724;DHT22;3399;52.530;13.304;2023-06-14T02:29:33;13.90;99.90
6724;DHT22;3399;52.530;13.304;2023-06-14T02:31:59;13.90;99.90
6724;DHT22;3399;52.530;13.304;2023-06-14T02:34:25;14.00;99.90
6724;DHT22;3399;52.530;13.304;2023-06-14T02:36:50;14.10;99.90
6724;DHT22;3399;52.530;13.304;2023-06-14T02:39:18;14.20;99.90
6724;DHT22;3399;52.530;13.304;2023-06-14T02:41:46;14.30;99.90
6724;DHT22;3399;52.530;13.304;2023-06-14T02:44:13;14.10;99.90
6724;DHT22;3399;52.530;13.304;2023-06-14T02:46:38;13.90;99.90
6724;DHT22;3399;52.530;13.304;2023-06-14T02:49:04;13.80;99.90
6724;DHT22;3399;52.530;13.304;2023-06-14T02:51:30;13.80;99.90
6724;DHT22;3399;52.530;13.304;2023-06-14T02:53:55;13.70;99.90
6724;DHT22;3399;52.530;13.304;2023-06-14T02:56:21;13.70;99.90
6724;DHT22;3399;52.530;13.304;2023-06-14T02:58:48;13.80;99.90
6724;DHT22;3399;52.530;13.304;2023-06-14T03:01:14;13.80;99.90
6724;DHT22;3399;52.530;13.304;2023-06-14T03:03:40;13.80;99.90
6724;DHT22;3399;52.530;13.304;2023-06-14T03:06:05;13.70;99.90
6724;DHT22;3399;52.530;13.304;2023-06-14T03:08:31;13.60;99.90
6724;DHT22;3399;52.530;13.304;2023-06-14T03:11:03;13.70;99.90
6724;DHT22;3399;52.530;13.304;2023-06-14T03:13:30;13.70;99.90
6724;DHT22;3399;52.530;13.304;2023-06-14T03:15:57;13.70;99.90
6724;DHT22;3399;52.530;13.304;2023-06-14T03:18:23;13.80;99.90
6724;DHT22;3399;52.530;13.304;2023-06-14T03:20:50;13.90;99.90
6724;DHT22;3399;52.530;13.304;2023-06-14T03:23:16;13.90;99.90
6724;DHT22;3399;52.530;13.304;2023-06-14T03:25:43;14.00;99.90
6724;DHT22;3399;52.530;13.304;2023-06-14T03:28:08;14.00;99.90
6724;DHT22;3399;52.530;13.304;2023-06-14T03:30:34;14.00;99.90
6724;DHT22;3399;52.530;13.304;2023-06-14T03:32:59;14.00;99.90
6724;DHT22;3399;52.530;13.304;2023-06-14T03:35:28;13.90;99.90
6724;DHT22;3399;52.530;13.304;2023-06-14T03:37:54;13.90;99.90
6724;DHT22;3399;52.530;13.304;2023-06-14T03:40:21;13.90;99.90
6724;DHT22;3399;52.530;13.304;2023-06-14T03:42:46;14.00;99.90
6724;DHT22;3399;52.530;13.304;2023-06-14T03:45:12;14.00;99.90
6724;DHT22;3399;52.530;13.304;2023-06-14T03:47:37;14.20;99.90
6724;DHT22;3399;52.530;13.304;2023-06-14T03:50:04;14.20;99.90
6724;DHT22;3399;52.530;13.304;2023-06-14T03:52:29;14.20;99.90
6724;DHT22;3399;52.530;13.304;2023-06-14T03:54:56;14.20;99.90
6724;DHT22;3399;52.530;13.304;2023-06-14T03:57:23;14.20;99.90
6724;DHT22;3399;52.530;13.304;2023-06-14T03:59:48;14.10;99.90
6724;DHT22;3399;52.530;13.304;2023-06-14T04:02:14;14.20;99.90
6724;DHT22;3399;52.530;13.304;2023-06-14T04:04:41;14.20;99.90
6724;DHT22;3399;52.530;13.304;2023-06-14T04:07:11;14.10;99.90
6724;DHT22;3399;52.530;13.304;2023-06-14T04:09:37;14.20;99.90
6724;DHT22;3399;52.530;13.304;2023-06-14T04:12:03;14.10;99.90
6724;DHT22;3399;52.530;13.304;2023-06-14T04:14:29;14.20;99.90
6724;DHT22;3399;52.530;13.304;2023-06-14T04:16:55;14.20;99.90
6724;DHT22;3399;52.530;13.304;2023-06-14T04:19:21;14.20;99.90
6724;DHT22;3399;52.530;13.304;2023-06-14T04:21:46;14.20;99.90
6724;DHT22;3399;52.530;13.304;2023-06-14T04:24:12;14.20;99.90
6724;DHT22;3399;52.530;13.304;2023-06-14T04:26:42;14.20;99.90
6724;DHT22;3399;52.530;13.304;2023-06-14T04:29:10;14.30;99.90
6724;DHT22;3399;52.530;13.304;2023-06-14T04:31:40;14.30;99.90
6724;DHT22;3399;52.530;13.304;2023-06-14T04:34:05;14.20;99.90
6724;DHT22;3399;52.530;13.304;2023-06-14T04:36:35;14.40;99.90
6724;DHT22;3399;52.530;13.304;2023-06-14T04:39:04;14.60;99.90
6724;DHT22;3399;52.530;13.304;2023-06-14T04:41:30;14.70;99.90
6724;DHT22;3399;52.530;13.304;2023-06-14T04:44:00;14.60;99.90
6724;DHT22;3399;52.530;13.304;2023-06-14T04:46:28;14.60;99.90
6724;DHT22;3399;52.530;13.304;2023-06-14T04:48:54;14.50;99.90
6724;DHT22;3399;52.530;13.304;2023-06-14T04:51:20;14.60;99.90
6724;DHT22;3399;52.530;13.304;2023-06-14T04:53:47;14.80;99.90
6724;DHT22;3399;52.530;13.304;2023-06-14T04:56:15;14.80;99.90
6724;DHT22;3399;52.530;13.304;2023-06-14T04:58:40;14.90;99.90
6724;DHT22;3399;52.530;13.304;2023-06-14T05:01:06;15.00;99.90
6724;DHT22;3399;52.530;13.304;2023-06-14T05:03:34;15.00;99.90
6724;DHT22;3399;52.530;13.304;2023-06-14T05:06:00;15.00;99.90
6724;DHT22;3399;52.530;13.304;2023-06-14T05:08:25;15.00;99.90
6724;DHT22;3399;52.530;13.304;2023-06-14T05:10:52;15.00;99.90
6724;DHT22;3399;52.530;13.304;2023-06-14T05:13:18;15.20;99.90
6724;DHT22;3399;52.530;13.304;2023-06-14T05:15:43;15.30;99.90
6724;DHT22;3399;52.530;13.304;2023-06-14T05:18:09;15.30;99.90
6724;DHT22;3399;52.530;13.304;2023-06-14T05:20:35;15.30;99.90
6724;DHT22;3399;52.530;13.304;2023-06-14T05:23:02;15.30;99.90
6724;DHT22;3399;52.530;13.304;2023-06-14T05:25:28;15.20;99.90
6724;DHT22;3399;52.530;13.304;2023-06-14T05:27:53;15.40;99.90
6724;DHT22;3399;52.530;13.304;2023-06-14T05:30:19;15.30;99.90
6724;DHT22;3399;52.530;13.304;2023-06-14T05:32:44;15.30;99.90
6724;DHT22;3399;52.530;13.304;2023-06-14T05:35:10;15.40;99.90
6724;DHT22;3399;52.530;13.304;2023-06-14T05:37:36;15.50;99.90
6724;DHT22;3399;52.530;13.304;2023-06-14T05:40:02;15.50;99.90
6724;DHT22;3399;52.530;13.304;2023-06-14T05:42:30;15.60;99.90
6724;DHT22;3399;52.530;13.304;2023-06-14T05:44:56;15.60;99.90
6724;DHT22;3399;52.530;13.304;2023-06-14T05:47:21;15.60;99.90
6724;DHT22;3399;52.530;13.304;2023-06-14T05:49:47;15.70;99.90
6724;DHT22;3399;52.530;13.304;2023-06-14T05:52:12;15.70;99.90
6724;DHT22;3399;52.530;13.304;2023-06-14T05:54:38;15.80;99.90
6724;DHT22;3399;52.530;13.304;2023-06-14T05:57:04;15.80;99.90
6724;DHT22;3399;52.530;13.304;2023-06-14T05:59:31;15.80;99.90
6724;DHT22;3399;52.530;13.304;2023-06-14T06:01:57;15.80;99.90
6724;DHT22;3399;52.530;13.304;2023-06-14T06:04:23;15.90;99.90
6724;DHT22;3399;52.530;13.304;2023-06-14T06:06:48;15.90;99.90
6724;DHT22;3399;52.530;13.304;2023-06-14T06:09:14;16.10;99.90
6724;DHT22;3399;52.530;13.304;2023-06-14T06:11:40;16.10;99.90
6724;DHT22;3399;52.530;13.304;2023-06-14T06:14:06;16.00;99.90
6724;DHT22;3399;52.530;13.304;2023-06-14T06:16:31;16.10;99.90
6724;DHT22;3399;52.530;13.304;2023-06-14T06:18:57;16.10;99.90
6724;DHT22;3399;52.530;13.304;2023-06-14T06:21:22;16.00;99.90
6724;DHT22;3399;52.530;13.304;2023-06-14T06:23:48;16.10;99.90
6724;DHT22;3399;52.530;13.304;2023-06-14T06:26:13;16.10;99.90
6724;DHT22;3399;52.530;13.304;2023-06-14T06:28:40;16.10;99.90
6724;DHT22;3399;52.530;13.304;2023-06-14T06:31:05;16.10;99.90
6724;DHT22;3399;52.530;13.304;2023-06-14T06:33:31;16.10;99.90
6724;DHT22;3399;52.530;13.304;2023-06-14T06:35:56;16.10;99.90
6724;DHT22;3399;52.530;13.304;2023-06-14T06:38:22;16.30;99.90
6724;DHT22;3399;52.530;13.304;2023-06-14T06:40:47;16.30;99.90
6724;DHT22;3399;52.530;13.304;2023-06-14T06:43:13;16.20;99.90
6724;DHT22;3399;52.530;13.304;2023-06-14T06:45:39;16.10;99.90
6724;DHT22;3399;52.530;13.304;2023-06-14T06:48:05;16.10;99.90
6724;DHT22;3399;52.530;13.304;2023-06-14T06:50:30;16.20;99.90
6724;DHT22;3399;52.530;13.304;2023-06-14T06:52:56;16.20;99.90
6724;DHT22;3399;52.530;13.304;2023-06-14T06:55:22;16.30;99.90
6724;DHT22;3399;52.530;13.304;2023-06-14T06:57:48;16.60;99.90
6724;DHT22;3399;52.530;13.304;2023-06-14T07:00:15;16.60;99.90
6724;DHT22;3399;52.530;13.304;2023-06-14T07:02:40;16.60;99.90
6724;DHT22;3399;52.530;13.304;2023-06-14T07:05:06;16.70;99.90
6724;DHT22;3399;52.530;13.304;2023-06-14T07:07:32;16.80;99.90
6724;DHT22;3399;52.530;13.304;2023-06-14T07:09:57;16.70;99.90
6724;DHT22;3399;52.530;13.304;2023-06-14T07:12:24;16.80;99.90
6724;DHT22;3399;52.530;13.304;2023-06-14T07:14:49;16.90;99.90
6724;DHT22;3399;52.530;13.304;2023-06-14T07:17:14;17.00;99.90
6724;DHT22;3399;52.530;13.304;2023-06-14T07:19:40;17.10;99.90
6724;DHT22;3399;52.530;13.304;2023-06-14T07:22:06;17.30;99.90
6724;DHT22;3399;52.530;13.304;2023-06-14T07:24:31;17.10;99.90
6724;DHT22;3399;52.530;13.304;2023-06-14T07:26:57;17.00;99.90
6724;DHT22;3399;52.530;13.304;2023-06-14T07:29:22;17.20;99.90
6724;DHT22;3399;52.530;13.304;2023-06-14T07:31:48;17.50;99.90
6724;DHT22;3399;52.530;13.304;2023-06-14T07:34:13;17.40;99.90
6724;DHT22;3399;52.530;13.304;2023-06-14T07:36:39;17.30;99.90
6724;DHT22;3399;52.530;13.304;2023-06-14T07:39:04;17.40;99.90
6724;DHT22;3399;52.530;13.304;2023-06-14T07:41:32;17.50;99.90
6724;DHT22;3399;52.530;13.304;2023-06-14T07:43:58;17.60;99.90
6724;DHT22;3399;52.530;13.304;2023-06-14T07:46:23;17.60;99.90
6724;DHT22;3399;52.530;13.304;2023-06-14T07:48:49;17.70;99.90
6724;DHT22;3399;52.530;13.304;2023-06-14T07:51:14;17.80;99.90
6724;DHT22;3399;52.530;13.304;2023-06-14T07:53:40;17.90;99.90
6724;DHT22;3399;52.530;13.304;2023-06-14T07:56:06;18.20;99.90
6724;DHT22;3399;52.530;13.304;2023-06-14T07:58:31;18.30;99.90
6724;DHT22;3399;52.530;13.304;2023-06-14T08:00:57;18.40;99.90
6724;DHT22;3399;52.530;13.304;2023-06-14T08:03:22;18.50;99.90
6724;DHT22;3399;52.530;13.304;2023-06-14T08:05:49;18.60;99.90
6724;DHT22;3399;52.530;13.304;2023-06-14T08:08:14;18.60;99.90
6724;DHT22;3399;52.530;13.304;2023-06-14T08:10:40;18.60;99.90
6724;DHT22;3399;52.530;13.304;2023-06-14T08:13:05;18.60;99.90
6724;DHT22;3399;52.530;13.304;2023-06-14T08:15:31;18.60;99.90
6724;DHT22;3399;52.530;13.304;2023-06-14T08:17:56;18.70;99.90
6724;DHT22;3399;52.530;13.304;2023-06-14T08:20:24;19.00;99.90
6724;DHT22;3399;52.530;13.304;2023-06-14T08:22:50;19.20;99.90
6724;DHT22;3399;52.530;13.304;2023-06-14T08:25:20;19.20;99.90
6724;DHT22;3399;52.530;13.304;2023-06-14T08:27:46;19.30;99.90
6724;DHT22;3399;52.530;13.304;2023-06-14T08:30:12;19.30;99.90
6724;DHT22;3399;52.530;13.304;2023-06-14T08:32:37;19.40;99.90
6724;DHT22;3399;52.530;13.304;2023-06-14T08:35:04;19.30;99.90
6724;DHT22;3399;52.530;13.304;2023-06-14T08:37:31;19.50;99.90
6724;DHT22;3399;52.530;13.304;2023-06-14T08:39:58;19.60;99.90
6724;DHT22;3399;52.530;13.304;2023-06-14T08:42:24;19.90;99.40
6724;DHT22;3399;52.530;13.304;2023-06-14T08:44:49;20.10;98.80
6724;DHT22;3399;52.530;13.304;2023-06-14T08:47:15;20.20;98.60
6724;DHT22;3399;52.530;13.304;2023-06-14T08:49:46;20.20;98.50
6724;DHT22;3399;52.530;13.304;2023-06-14T08:52:13;20.20;98.70
6724;DHT22;3399;52.530;13.304;2023-06-14T08:54:44;20.30;98.20
6724;DHT22;3399;52.530;13.304;2023-06-14T08:57:11;20.10;98.10
6724;DHT22;3399;52.530;13.304;2023-06-14T08:59:45;20.30;98.60
6724;DHT22;3399;52.530;13.304;2023-06-14T09:02:12;20.20;98.30
6724;DHT22;3399;52.530;13.304;2023-06-14T09:04:39;20.20;97.90
6724;DHT22;3399;52.530;13.304;2023-06-14T09:07:05;20.20;97.90
6724;DHT22;3399;52.530;13.304;2023-06-14T09:09:31;20.30;97.80
6724;DHT22;3399;52.530;13.304;2023-06-14T09:11:57;20.50;97.50
6724;DHT22;3399;52.530;13.304;2023-06-14T09:14:24;20.70;97.60
6724;DHT22;3399;52.530;13.304;2023-06-14T09:16:54;20.90;96.30
6724;DHT22;3399;52.530;13.304;2023-06-14T09:19:23;21.00;96.30
6724;DHT22;3399;52.530;13.304;2023-06-14T09:21:49;20.90;95.90
6724;DHT22;3399;52.530;13.304;2023-06-14T09:24:15;21.00;95.70
6724;DHT22;3399;52.530;13.304;2023-06-14T09:26:40;21.00;95.70
6724;DHT22;3399;52.530;13.304;2023-06-14T09:29:06;20.90;95.80
6724;DHT22;3399;52.530;13.304;2023-06-14T09:31:31;20.80;96.30
6724;DHT22;3399;52.530;13.304;2023-06-14T09:33:58;21.00;96.10
6724;DHT22;3399;52.530;13.304;2023-06-14T09:36:26;21.20;95.30
6724;DHT22;3399;52.530;13.304;2023-06-14T09:38:57;21.30;95.00
6724;DHT22;3399;52.530;13.304;2023-06-14T09:41:37;21.20;94.90
6724;DHT22;3399;52.530;13.304;2023-06-14T09:44:04;21.20;94.70
6724;DHT22;3399;52.530;13.304;2023-06-14T09:46:31;21.30;94.90
6724;DHT22;3399;52.530;13.304;2023-06-14T09:48:57;21.10;94.80
6724;DHT22;3399;52.530;13.304;2023-06-14T09:51:23;21.20;95.00
6724;DHT22;3399;52.530;13.304;2023-06-14T09:53:49;21.20;94.40
6724;DHT22;3399;52.530;13.304;2023-06-14T09:56:26;21.30;94.40
6724;DHT22;3399;52.530;13.304;2023-06-14T09:58:56;21.30;93.70
6724;DHT22;3399;52.530;13.304;2023-06-14T10:01:23;21.00;94.50
6724;DHT22;3399;52.530;13.304;2023-06-14T10:04:11;21.30;94.20
6724;DHT22;3399;52.530;13.304;2023-06-14T10:06:43;21.50;94.10
6724;DHT22;3399;52.530;13.304;2023-06-14T10:09:11;21.40;93.90
6724;DHT22;3399;52.530;13.304;2023-06-14T10:11:38;21.50;93.60
6724;DHT22;3399;52.530;13.304;2023-06-14T10:14:10;21.60;93.60
6724;DHT22;3399;52.530;13.304;2023-06-14T10:16:52;21.50;93.60
6724;DHT22;3399;52.530;13.304;2023-06-14T10:19:36;21.50;92.80
6724;DHT22;3399;52.530;13.304;2023-06-14T10:22:19;21.60;93.00
6724;DHT22;3399;52.530;13.304;2023-06-14T10:24:48;21.60;92.80
6724;DHT22;3399;52.530;13.304;2023-06-14T10:27:16;21.50;92.90
6724;DHT22;3399;52.530;13.304;2023-06-14T10:32:23;21.60;93.10
6724;DHT22;3399;52.530;13.304;2023-06-14T10:34:55;21.60;93.10
6724;DHT22;3399;52.530;13.304;2023-06-14T10:37:21;21.60;92.50
6724;DHT22;3399;52.530;13.304;2023-06-14T10:39:46;21.80;92.30
6724;DHT22;3399;52.530;13.304;2023-06-14T10:42:13;21.90;92.10
6724;DHT22;3399;52.530;13.304;2023-06-14T10:44:49;22.00;92.40
6724;DHT22;3399;52.530;13.304;2023-06-14T10:47:25;21.80;92.30
6724;DHT22;3399;52.530;13.304;2023-06-14T10:49:56;22.00;92.40
6724;DHT22;3399;52.530;13.304;2023-06-14T10:52:27;22.00;92.20
6724;DHT22;3399;52.530;13.304;2023-06-14T10:55:06;22.10;91.80
6724;DHT22;3399;52.530;13.304;2023-06-14T10:57:38;22.10;91.70
6724;DHT22;3399;52.530;13.304;2023-06-14T11:00:05;22.20;91.50
6724;DHT22;3399;52.530;13.304;2023-06-14T11:02:49;22.30;91.70
6724;DHT22;3399;52.530;13.304;2023-06-14T11:05:24;22.40;90.90
6724;DHT22;3399;52.530;13.304;2023-06-14T11:10:39;22.40;90.90
6724;DHT22;3399;52.530;13.304;2023-06-14T11:13:08;22.60;90.00
6724;DHT22;3399;52.530;13.304;2023-06-14T11:15:36;22.50;90.30
6724;DHT22;3399;52.530;13.304;2023-06-14T11:18:06;22.50;90.70
6724;DHT22;3399;52.530;13.304;2023-06-14T11:20:34;22.70;89.60
6724;DHT22;3399;52.530;13.304;2023-06-14T11:23:00;22.90;87.80
6724;DHT22;3399;52.530;13.304;2023-06-14T11:25:26;23.00;86.40
6724;DHT22;3399;52.530;13.304;2023-06-14T11:27:53;23.00;87.50
6724;DHT22;3399;52.530;13.304;2023-06-14T11:30:19;23.10;87.20
6724;DHT22;3399;52.530;13.304;2023-06-14T11:32:49;23.20;86.50
6724;DHT22;3399;52.530;13.304;2023-06-14T11:35:16;23.40;87.00
6724;DHT22;3399;52.530;13.304;2023-06-14T11:37:42;23.50;85.40
6724;DHT22;3399;52.530;13.304;2023-06-14T11:40:09;23.60;84.70
6724;DHT22;3399;52.530;13.304;2023-06-14T11:42:36;23.70;84.30
6724;DHT22;3399;52.530;13.304;2023-06-14T11:45:02;23.90;81.20
6724;DHT22;3399;52.530;13.304;2023-06-14T11:47:32;24.10;81.70
6724;DHT22;3399;52.530;13.304;2023-06-14T11:49:59;24.10;77.70
6724;DHT22;3399;52.530;13.304;2023-06-14T11:52:25;23.90;80.30
6724;DHT22;3399;52.530;13.304;2023-06-14T11:54:50;24.20;77.10
6724;DHT22;3399;52.530;13.304;2023-06-14T11:57:18;24.00;79.00
6724;DHT22;3399;52.530;13.304;2023-06-14T11:59:44;24.20;78.10
6724;DHT22;3399;52.530;13.304;2023-06-14T12:02:14;24.20;78.70
6724;DHT22;3399;52.530;13.304;2023-06-14T12:04:43;24.60;78.20
6724;DHT22;3399;52.530;13.304;2023-06-14T12:07:13;24.70;75.60
6724;DHT22;3399;52.530;13.304;2023-06-14T12:12:26;24.30;72.70
6724;DHT22;3399;52.530;13.304;2023-06-14T12:14:53;24.40;73.70
6724;DHT22;3399;52.530;13.304;2023-06-14T12:17:19;24.50;72.00
6724;DHT22;3399;52.530;13.304;2023-06-14T12:19:46;24.60;70.90
6724;DHT22;3399;52.530;13.304;2023-06-14T12:22:15;24.80;70.20
6724;DHT22;3399;52.530;13.304;2023-06-14T12:24:45;25.10;69.40
6724;DHT22;3399;52.530;13.304;2023-06-14T12:27:11;25.30;69.00
6724;DHT22;3399;52.530;13.304;2023-06-14T12:29:44;25.30;68.50
6724;DHT22;3399;52.530;13.304;2023-06-14T12:32:10;25.20;68.30
6724;DHT22;3399;52.530;13.304;2023-06-14T12:34:36;25.40;66.80
6724;DHT22;3399;52.530;13.304;2023-06-14T12:37:02;25.00;66.80
6724;DHT22;3399;52.530;13.304;2023-06-14T12:39:29;25.20;66.50
6724;DHT22;3399;52.530;13.304;2023-06-14T12:41:57;25.40;64.80
6724;DHT22;3399;52.530;13.304;2023-06-14T12:44:23;25.30;64.20
6724;DHT22;3399;52.530;13.304;2023-06-14T12:46:49;25.50;62.50
6724;DHT22;3399;52.530;13.304;2023-06-14T12:49:16;25.50;62.60
6724;DHT22;3399;52.530;13.304;2023-06-14T12:51:42;25.40;63.10
6724;DHT22;3399;52.530;13.304;2023-06-14T12:54:08;25.50;63.10
6724;DHT22;3399;52.530;13.304;2023-06-14T12:56:33;25.50;62.90
6724;DHT22;3399;52.530;13.304;2023-06-14T12:58:59;25.60;61.30
6724;DHT22;3399;52.530;13.304;2023-06-14T13:01:24;25.40;61.70
6724;DHT22;3399;52.530;13.304;2023-06-14T13:03:50;25.10;59.60
6724;DHT22;3399;52.530;13.304;2023-06-14T13:06:20;25.10;60.60
6724;DHT22;3399;52.530;13.304;2023-06-14T13:08:46;25.40;61.90
6724;DHT22;3399;52.530;13.304;2023-06-14T13:11:11;25.80;57.60
6724;DHT22;3399;52.530;13.304;2023-06-14T13:13:37;26.10;58.40
6724;DHT22;3399;52.530;13.304;2023-06-14T13:16:03;25.70;59.10
6724;DHT22;3399;52.530;13.304;2023-06-14T13:18:28;25.50;57.10
6724;DHT22;3399;52.530;13.304;2023-06-14T13:20:56;25.30;57.90
6724;DHT22;3399;52.530;13.304;2023-06-14T13:23:21;25.20;57.60
6724;DHT22;3399;52.530;13.304;2023-06-14T13:25:47;25.10;58.20
6724;DHT22;3399;52.530;13.304;2023-06-14T13:28:15;25.10;59.00
6724;DHT22;3399;52.530;13.304;2023-06-14T13:30:40;24.90;58.90
6724;DHT22;3399;52.530;13.304;2023-06-14T13:33:06;25.40;59.50
6724;DHT22;3399;52.530;13.304;2023-06-14T13:35:31;25.60;57.40
6724;DHT22;3399;52.530;13.304;2023-06-14T13:37:57;25.50;56.70
6724;DHT22;3399;52.530;13.304;2023-06-14T13:40:22;25.60;56.90
6724;DHT22;3399;52.530;13.304;2023-06-14T13:42:48;25.60;57.90
6724;DHT22;3399;52.530;13.304;2023-06-14T13:45:14;25.90;56.90
6724;DHT22;3399;52.530;13.304;2023-06-14T13:47:40;26.10;55.70
6724;DHT22;3399;52.530;13.304;2023-06-14T13:50:06;26.00;55.90
6724;DHT22;3399;52.530;13.304;2023-06-14T13:52:32;26.00;55.10
6724;DHT22;3399;52.530;13.304;2023-06-14T13:54:57;25.90;54.20
6724;DHT22;3399;52.530;13.304;2023-06-14T13:57:23;26.00;54.30
6724;DHT22;3399;52.530;13.304;2023-06-14T13:59:49;26.20;52.90
6724;DHT22;3399;52.530;13.304;2023-06-14T14:02:15;26.30;53.50
6724;DHT22;3399;52.530;13.304;2023-06-14T14:04:41;26.40;52.70
6724;DHT22;3399;52.530;13.304;2023-06-14T14:07:07;26.30;52.90
6724;DHT22;3399;52.530;13.304;2023-06-14T14:09:33;26.00;51.10
6724;DHT22;3399;52.530;13.304;2023-06-14T14:12:00;25.90;53.30
6724;DHT22;3399;52.530;13.304;2023-06-14T14:14:26;26.00;51.50
6724;DHT22;3399;52.530;13.304;2023-06-14T14:16:52;25.80;52.10
6724;DHT22;3399;52.530;13.304;2023-06-14T14:19:20;25.80;51.20
6724;DHT22;3399;52.530;13.304;2023-06-14T14:21:46;25.50;53.00
6724;DHT22;3399;52.530;13.304;2023-06-14T14:24:12;25.10;54.40
6724;DHT22;3399;52.530;13.304;2023-06-14T14:26:37;24.90;55.70
6724;DHT22;3399;52.530;13.304;2023-06-14T14:29:03;24.80;56.20
6724;DHT22;3399;52.530;13.304;2023-06-14T14:31:29;24.80;56.40
6724;DHT22;3399;52.530;13.304;2023-06-14T14:33:55;24.70;56.90
6724;DHT22;3399;52.530;13.304;2023-06-14T14:36:21;24.60;56.90
6724;DHT22;3399;52.530;13.304;2023-06-14T14:38:47;24.40;57.30
6724;DHT22;3399;52.530;13.304;2023-06-14T14:41:13;24.20;57.90
6724;DHT22;3399;52.530;13.304;2023-06-14T14:43:39;24.20;57.80
6724;DHT22;3399;52.530;13.304;2023-06-14T14:46:04;24.10;57.90
6724;DHT22;3399;52.530;13.304;2023-06-14T14:48:30;24.40;58.30
6724;DHT22;3399;52.530;13.304;2023-06-14T14:50:55;25.00;58.00
6724;DHT22;3399;52.530;13.304;2023-06-14T14:53:21;25.40;57.00
6724;DHT22;3399;52.530;13.304;2023-06-14T14:55:47;25.60;56.80
6724;DHT22;3399;52.530;13.304;2023-06-14T14:58:13;25.40;56.70
6724;DHT22;3399;52.530;13.304;2023-06-14T15:00:42;25.40;56.80
6724;DHT22;3399;52.530;13.304;2023-06-14T15:03:07;25.20;56.60
6724;DHT22;3399;52.530;13.304;2023-06-14T15:05:33;24.90;56.90
6724;DHT22;3399;52.530;13.304;2023-06-14T15:07:58;24.70;57.40
6724;DHT22;3399;52.530;13.304;2023-06-14T15:10:24;24.60;57.80
6724;DHT22;3399;52.530;13.304;2023-06-14T15:12:49;24.50;58.20
6724;DHT22;3399;52.530;13.304;2023-06-14T15:15:15;24.40;59.00
6724;DHT22;3399;52.530;13.304;2023-06-14T15:17:40;24.40;58.80
6724;DHT22;3399;52.530;13.304;2023-06-14T15:20:06;24.30;58.40
6724;DHT22;3399;52.530;13.304;2023-06-14T15:22:32;24.20;58.10
6724;DHT22;3399;52.530;13.304;2023-06-14T15:24:57;24.10;58.20
6724;DHT22;3399;52.530;13.304;2023-06-14T15:27:23;23.90;58.50
6724;DHT22;3399;52.530;13.304;2023-06-14T15:29:52;23.90;58.50
6724;DHT22;3399;52.530;13.304;2023-06-14T15:32:18;23.70;58.40
6724;DHT22;3399;52.530;13.304;2023-06-14T15:34:44;23.70;58.70
6724;DHT22;3399;52.530;13.304;2023-06-14T15:37:09;23.70;58.40
6724;DHT22;3399;52.530;13.304;2023-06-14T15:39:35;23.80;58.70
6724;DHT22;3399;52.530;13.304;2023-06-14T15:42:00;23.70;58.70
6724;DHT22;3399;52.530;13.304;2023-06-14T15:44:26;23.70;58.60
6724;DHT22;3399;52.530;13.304;2023-06-14T15:46:52;23.60;58.70
6724;DHT22;3399;52.530;13.304;2023-06-14T15:49:17;23.60;58.10
6724;DHT22;3399;52.530;13.304;2023-06-14T15:51:44;23.50;58.00